Time;durP1;ratioP1;P1;durP2;ratioP2;P2;SDS_P1;SDS_P2;PMS_P1;PMS_P2;Temp;Humidity;BMP_temperature;BMP_pressure;BME280_temperature;BME280_humidity;BME280_pressure;Samples;Min_cycle;Max_cycle;Signal;HPM_P1;HPM_P2
2023/08/14 00:00:16;;;;;;;5.63;3.22;;;;;;;17.91;54.37;95188.09;5114120;27;20482;-84
2023/08/14 00:02:41;;;;;;;5.43;3.38;;;;;;;17.97;54.65;95197.97;5107213;28;20036;-83
2023/08/14 00:05:07;;;;;;;3.95;3.33;;;;;;;17.95;54.42;95204.38;5115498;27;20047;-84
2023/08/14 00:07:32;;;;;;;4.55;3.25;;;;;;;17.73;54.52;95184.78;5123254;27;20518;-83
2023/08/14 00:09:58;;;;;;;7.72;3.95;;;;;;;17.80;54.46;95201.56;5095646;28;20406;-83
2023/08/14 00:12:23;;;;;;;5.90;2.92;;;;;;;17.73;54.86;95203.97;5130180;27;20027;-84
2023/08/14 00:14:49;;;;;;;3.83;3.35;;;;;;;17.81;54.45;95204.03;5116015;27;20027;-83
2023/08/14 00:17:14;;;;;;;4.13;3.25;;;;;;;17.81;53.96;95188.25;5133269;27;20020;-82
2023/08/14 00:19:39;;;;;;;5.05;3.30;;;;;;;17.89;54.03;95210.28;5133002;27;20440;-83
2023/08/14 00:22:05;;;;;;;4.15;3.10;;;;;;;17.82;54.20;95208.28;5098276;27;20039;-82
2023/08/14 00:24:30;;;;;;;5.03;3.40;;;;;;;17.79;54.32;95206.00;5116541;27;20509;-82
2023/08/14 00:26:56;;;;;;;3.65;2.85;;;;;;;17.83;54.31;95215.22;5112101;27;20028;-82
2023/08/14 00:29:21;;;;;;;4.38;3.58;;;;;;;17.78;54.48;95214.88;5115544;27;20035;-82
2023/08/14 00:31:47;;;;;;;4.35;3.30;;;;;;;17.89;53.80;95210.28;5113189;27;20031;-82
2023/08/14 00:34:12;;;;;;;3.83;3.40;;;;;;;17.74;54.23;95202.16;5115988;27;20038;-82
2023/08/14 00:36:37;;;;;;;7.53;3.40;;;;;;;17.93;53.79;95224.75;5096262;28;20466;-83
2023/08/14 00:39:03;;;;;;;3.58;2.78;;;;;;;17.73;53.95;95206.59;5126034;27;20027;-81
2023/08/14 00:41:28;;;;;;;4.30;3.10;;;;;;;17.71;54.00;95207.75;5115494;27;20118;-80
2023/08/14 00:43:54;;;;;;;4.13;3.05;;;;;;;17.77;54.22;95212.34;5132204;27;20076;-81
2023/08/14 00:46:19;;;;;;;4.25;3.40;;;;;;;17.79;53.96;95218.31;5114619;27;20035;-82
2023/08/14 00:48:44;;;;;;;3.58;3.00;;;;;;;17.81;53.54;95204.03;5114100;27;20420;-81
2023/08/14 00:51:10;;;;;;;3.80;3.25;;;;;;;17.70;54.05;95217.44;5111525;27;20047;-81
2023/08/14 00:53:35;;;;;;;4.47;2.92;;;;;;;17.74;54.00;95208.25;5110615;27;20043;-81
2023/08/14 00:56:01;;;;;;;3.78;3.08;;;;;;;17.65;54.17;95203.97;5131551;27;20042;-82
2023/08/14 00:58:27;;;;;;;3.45;3.13;;;;;;;17.72;53.37;95212.00;5114751;27;20176;-82
2023/08/14 01:00:53;;;;;;;3.17;2.78;;;;;;;17.79;54.07;95202.53;5096864;27;20092;-82
2023/08/14 01:03:19;;;;;;;3.20;2.72;;;;;;;17.80;53.47;95207.66;5113479;27;20019;-82
2023/08/14 01:05:45;;;;;;;3.60;2.95;;;;;;;17.74;53.66;95213.50;5107081;28;20023;-81
2023/08/14 01:08:10;;;;;;;4.15;3.10;;;;;;;17.78;53.29;95214.03;5113863;27;20072;-81
2023/08/14 01:10:56;;;;;;;4.88;2.88;;;;;;;17.71;53.58;95208.56;5121500;27;20512;-82
2023/08/14 01:13:36;;;;;;;3.90;3.05;;;;;;;17.80;53.33;95209.44;5131559;27;20066;-82
2023/08/14 01:16:06;;;;;;;3.57;3.00;;;;;;;17.79;53.48;95211.25;5131961;27;20505;-81
2023/08/14 01:18:31;;;;;;;6.05;3.45;;;;;;;17.71;53.98;95202.50;5111588;27;20031;-82
2023/08/14 01:21:15;;;;;;;5.53;2.90;;;;;;;17.72;53.65;95207.59;5094250;28;20047;-82
2023/08/14 01:24:13;;;;;;;4.70;2.97;;;;;;;17.71;53.63;95211.19;5119066;27;20027;-81
2023/08/14 01:26:38;;;;;;;4.50;3.00;;;;;;;17.67;54.07;95201.19;5100854;28;20042;-82
2023/08/14 01:29:04;;;;;;;4.05;3.08;;;;;;;17.77;53.99;95202.66;5114597;27;20401;-81
2023/08/14 01:31:29;;;;;;;4.70;3.40;;;;;;;17.69;54.78;95202.69;5094167;28;20493;-81
2023/08/14 01:33:55;;;;;;;3.42;2.92;;;;;;;17.70;53.98;95206.94;5100436;27;20032;-81
2023/08/14 01:36:27;;;;;;;5.22;2.83;;;;;;;17.71;53.63;95207.75;5114926;27;20749;-82
2023/08/14 01:38:55;;;;;;;5.70;3.13;;;;;;;17.62;53.46;95205.09;5111167;28;20447;-82
2023/08/14 01:41:33;;;;;;;3.58;2.67;;;;;;;17.68;53.28;95208.06;5110756;28;20565;-81
2023/08/14 01:43:59;;;;;;;4.03;2.80;;;;;;;17.54;53.50;95204.25;5097406;27;20031;-80
2023/08/14 01:46:25;;;;;;;4.10;2.80;;;;;;;17.53;53.54;95213.97;5114043;27;20028;-80
2023/08/14 01:48:50;;;;;;;5.88;3.00;;;;;;;17.54;53.41;95202.47;5129787;27;20026;-81
2023/08/14 01:51:16;;;;;;;3.28;2.67;;;;;;;17.60;52.58;95206.25;5102068;27;20027;-81
2023/08/14 01:53:42;;;;;;;5.45;2.75;;;;;;;17.45;52.83;95197.34;5114149;27;20493;-81
2023/08/14 01:56:07;;;;;;;3.92;2.80;;;;;;;17.48;52.36;95189.16;5113746;28;20031;-81
2023/08/14 01:58:33;;;;;;;3.22;2.35;;;;;;;17.59;52.04;95204.63;5109759;28;20073;-81
2023/08/14 02:00:58;;;;;;;3.17;2.35;;;;;;;17.58;51.97;95202.97;5093650;28;20071;-81
2023/08/14 02:03:25;;;;;;;3.67;2.65;;;;;;;17.58;52.16;95201.16;5126584;28;20038;-82
2023/08/14 02:05:50;;;;;;;4.38;2.83;;;;;;;17.57;52.45;95201.31;5115650;28;20031;-81
2023/08/14 02:08:16;;;;;;;3.85;2.70;;;;;;;17.60;52.35;95195.75;5093506;28;20028;-81
2023/08/14 02:10:41;;;;;;;3.72;2.90;;;;;;;17.46;52.64;95194.56;5125717;28;20515;-82
2023/08/14 02:13:06;;;;;;;2.92;2.30;;;;;;;17.41;52.70;95194.19;5132629;27;20038;-81
2023/08/14 02:15:32;;;;;;;3.17;2.50;;;;;;;17.40;52.58;95196.00;5112110;27;20028;-82
2023/08/14 02:17:58;;;;;;;3.00;2.42;;;;;;;17.42;52.53;95194.06;5094578;28;20059;-80
2023/08/14 02:20:24;;;;;;;3.53;2.70;;;;;;;17.58;51.99;95197.72;5094544;28;20032;-80
2023/08/14 02:22:50;;;;;;;5.13;2.88;;;;;;;17.50;52.06;95197.69;5112645;28;20027;-81
2023/08/14 02:25:15;;;;;;;3.30;2.60;;;;;;;17.48;52.14;95195.22;5128354;28;20035;-81
2023/08/14 02:27:41;;;;;;;3.33;2.50;;;;;;;17.55;51.79;95203.28;5111940;28;20174;-81
2023/08/14 02:30:07;;;;;;;3.05;2.40;;;;;;;17.58;51.45;95197.72;5111676;27;20027;-81
2023/08/14 02:32:32;;;;;;;3.38;2.50;;;;;;;17.58;51.87;95203.78;5114129;28;20087;-81
2023/08/14 02:34:57;;;;;;;3.25;2.40;;;;;;;17.49;52.01;95196.03;5124728;27;20031;-81
2023/08/14 02:37:23;;;;;;;3.80;2.40;;;;;;;17.58;51.87;95201.16;5115766;28;20024;-82
2023/08/14 02:39:48;;;;;;;4.00;2.60;;;;;;;17.48;51.63;95178.66;5119366;28;20023;-81
2023/08/14 02:42:15;;;;;;;2.90;2.40;;;;;;;17.47;52.16;95192.75;5093210;28;20127;-81
2023/08/14 02:44:40;;;;;;;4.25;2.53;;;;;;;17.39;52.35;95188.31;5088905;28;20035;-80
2023/08/14 02:47:05;;;;;;;3.17;2.65;;;;;;;17.28;52.96;95199.94;5110628;28;20028;-81
2023/08/14 02:49:31;;;;;;;3.80;2.85;;;;;;;17.49;52.44;95198.66;5094050;28;20043;-81
2023/08/14 02:51:56;;;;;;;3.40;2.53;;;;;;;17.51;52.42;95201.97;5115872;28;20023;-81
2023/08/14 02:54:22;;;;;;;4.18;2.70;;;;;;;17.43;52.50;95208.00;5117235;28;20116;-81
2023/08/14 02:56:47;;;;;;;3.30;2.75;;;;;;;17.33;52.92;95216.03;5112887;28;20027;-82
2023/08/14 02:59:13;;;;;;;2.90;2.50;;;;;;;17.30;53.12;95211.09;5102134;28;20039;-81
2023/08/14 03:01:38;;;;;;;4.63;2.75;;;;;;;17.22;53.61;95212.84;5119107;28;20027;-80
2023/08/14 03:04:04;;;;;;;4.57;2.92;;;;;;;17.27;53.10;95195.63;5115718;27;20039;-81
2023/08/14 03:06:31;;;;;;;4.38;2.42;;;;;;;17.40;52.90;95203.06;5133935;27;20026;-79
2023/08/14 03:08:57;;;;;;;4.45;2.33;;;;;;;17.45;53.01;95206.06;5128089;27;20061;-80
2023/08/14 03:11:23;;;;;;;3.65;2.80;;;;;;;17.38;53.18;95198.00;5096838;28;20035;-81
2023/08/14 03:13:48;;;;;;;5.35;2.60;;;;;;;17.48;53.15;95197.03;5100494;28;20039;-81
2023/08/14 03:16:14;;;;;;;5.07;2.53;;;;;;;17.48;53.28;95189.16;5096366;28;20489;-81
2023/08/14 03:18:40;;;;;;;2.67;2.28;;;;;;;17.55;53.89;95198.03;5113686;28;20034;-81
2023/08/14 03:21:05;;;;;;;3.67;2.40;;;;;;;17.44;53.91;95199.16;5112465;27;20062;-80
2023/08/14 03:23:30;;;;;;;4.18;2.97;;;;;;;17.46;55.88;95201.63;5114932;27;20028;-81
2023/08/14 03:25:56;;;;;;;2.83;2.40;;;;;;;17.55;55.55;95196.25;5122405;27;20092;-80
2023/08/14 03:28:21;;;;;;;3.42;2.72;;;;;;;17.58;55.86;95189.84;5132896;27;20091;-81
2023/08/14 03:30:48;;;;;;;3.53;2.70;;;;;;;17.51;56.11;95200.16;5100302;28;20023;-80
2023/08/14 03:33:13;;;;;;;3.88;2.78;;;;;;;17.47;56.11;95203.25;5113391;27;20516;-80
2023/08/14 03:35:39;;;;;;;3.25;2.60;;;;;;;17.37;56.35;95201.59;5115242;27;20036;-80
2023/08/14 03:38:04;;;;;;;4.40;2.85;;;;;;;17.30;56.55;95205.84;5126485;27;20019;-80
2023/08/14 03:40:30;;;;;;;3.92;2.85;;;;;;;17.20;56.60;95194.66;5120159;27;20038;-80
2023/08/14 03:42:55;;;;;;;3.63;2.75;;;;;;;17.06;57.22;95197.88;5133774;27;20377;-78
2023/08/14 03:45:21;;;;;;;3.45;2.90;;;;;;;16.85;58.28;95209.56;5129465;27;20036;-80
2023/08/14 03:47:46;;;;;;;3.63;2.67;;;;;;;16.57;57.84;95171.34;5127039;27;20079;-80
2023/08/14 03:50:11;;;;;;;3.33;2.70;;;;;;;16.56;58.54;95172.34;5100314;28;20491;-80
2023/08/14 03:52:37;;;;;;;3.40;2.42;;;;;;;16.68;58.31;95200.75;5129087;27;20050;-80
2023/08/14 03:55:02;;;;;;;3.30;2.60;;;;;;;16.66;58.08;95192.22;5124027;27;20032;-81
2023/08/14 03:57:28;;;;;;;4.43;2.67;;;;;;;16.75;58.34;95204.41;5134459;27;20492;-80
2023/08/14 03:59:53;;;;;;;4.88;3.13;;;;;;;16.69;58.34;95197.16;5120935;27;20046;-80
2023/08/14 04:02:18;;;;;;;4.22;2.65;;;;;;;16.73;58.21;95188.00;5108173;27;20031;-80
2023/08/14 04:04:44;;;;;;;3.85;2.80;;;;;;;16.60;58.99;95197.25;5108067;28;20477;-81
2023/08/14 04:07:09;;;;;;;3.67;2.53;;;;;;;16.58;58.69;95194.00;5115134;27;20027;-80
2023/08/14 04:09:35;;;;;;;4.28;2.80;;;;;;;16.61;58.80;95199.75;5133348;27;20553;-81
2023/08/14 04:12:01;;;;;;;4.30;2.55;;;;;;;16.54;58.90;95196.06;5105957;28;20024;-81
2023/08/14 04:14:27;;;;;;;3.50;2.65;;;;;;;16.56;58.86;95193.31;5112276;28;20099;-79
2023/08/14 04:16:54;;;;;;;4.47;2.63;;;;;;;16.79;58.49;95202.31;5095563;28;20512;-81
2023/08/14 04:19:19;;;;;;;4.93;2.65;;;;;;;16.72;59.22;95191.59;5078828;28;20466;-80
2023/08/14 04:21:44;;;;;;;3.30;2.67;;;;;;;16.76;59.32;95176.38;5104051;28;20016;-80
2023/08/14 04:24:10;;;;;;;5.07;3.03;;;;;;;17.05;59.02;95202.31;5102762;27;20039;-80
2023/08/14 04:26:38;;;;;;;4.22;2.72;;;;;;;17.11;59.12;95201.66;5110746;27;20073;-80
2023/08/14 04:29:07;;;;;;;3.47;2.70;;;;;;;17.20;59.01;95211.22;5114522;27;20032;-80
2023/08/14 04:31:36;;;;;;;2.72;2.40;;;;;;;17.32;59.43;95219.63;5115034;27;20515;-79
2023/08/14 04:34:02;;;;;;;3.20;2.70;;;;;;;17.44;59.54;95225.44;5117526;27;20481;-79
2023/08/14 04:36:30;;;;;;;4.03;3.20;;;;;;;17.42;59.56;95204.56;5087776;27;20027;-79
2023/08/14 04:38:55;;;;;;;3.10;2.75;;;;;;;17.51;60.23;95218.53;5129603;27;20538;-80
2023/08/14 04:41:21;;;;;;;3.70;2.80;;;;;;;17.57;60.04;95211.81;5111331;28;20635;-80
2023/08/14 04:43:46;;;;;;;3.20;2.75;;;;;;;17.69;60.00;95210.56;5111972;28;20035;-79
2023/08/14 04:46:11;;;;;;;3.58;2.65;;;;;;;17.73;59.09;95217.13;5119898;27;20034;-79
2023/08/14 04:48:37;;;;;;;3.40;2.70;;;;;;;17.73;59.11;95230.25;5111935;28;20100;-79
2023/08/14 04:51:04;;;;;;;4.55;3.00;;;;;;;18.17;59.17;95230.03;5095257;27;20106;-79
2023/08/14 04:53:30;;;;;;;3.17;2.55;;;;;;;18.48;58.55;95232.81;5101266;27;20062;-81
2023/08/14 04:55:55;;;;;;;4.18;2.60;;;;;;;18.63;58.15;95227.69;5132257;27;20381;-80
2023/08/14 04:58:20;;;;;;;3.22;2.78;;;;;;;18.88;56.05;95225.88;5118593;27;20500;-79
2023/08/14 05:00:46;;;;;;;4.35;2.80;;;;;;;19.00;56.85;95226.34;5118412;27;20027;-80
2023/08/14 05:03:11;;;;;;;3.70;2.80;;;;;;;18.80;55.99;95239.03;5131792;27;20035;-80
2023/08/14 05:05:36;;;;;;;4.55;2.90;;;;;;;18.95;55.88;95228.66;5133307;27;20035;-81
2023/08/14 05:08:02;;;;;;;3.00;2.50;;;;;;;19.23;56.34;95226.44;5131705;27;20031;-80
2023/08/14 05:10:27;;;;;;;3.33;2.75;;;;;;;19.28;56.16;95218.00;5133168;27;20033;-81
2023/08/14 05:12:54;;;;;;;3.83;2.42;;;;;;;19.53;54.61;95238.00;5097581;27;20544;-81
2023/08/14 05:15:19;;;;;;;3.28;2.70;;;;;;;19.36;55.03;95236.41;5114850;27;20110;-80
2023/08/14 05:17:45;;;;;;;3.75;2.75;;;;;;;19.38;55.25;95223.91;5131543;27;20027;-80
2023/08/14 05:20:10;;;;;;;3.75;2.40;;;;;;;19.73;55.31;95238.44;5131626;27;20031;-80
2023/08/14 05:22:36;;;;;;;5.70;3.40;;;;;;;19.61;53.90;95237.13;5114293;27;20034;-80
2023/08/14 05:25:01;;;;;;;4.40;2.85;;;;;;;19.96;54.58;95225.28;5114351;27;20038;-80
2023/08/14 05:27:27;;;;;;;3.88;2.88;;;;;;;20.24;53.77;95241.38;5131255;27;20100;-80
2023/08/14 05:29:52;;;;;;;2.88;2.40;;;;;;;20.40;53.51;95235.19;5132596;27;20023;-79
2023/08/14 05:32:18;;;;;;;3.55;2.60;;;;;;;20.48;53.58;95234.28;5130794;27;20031;-80
2023/08/14 05:34:43;;;;;;;3.80;2.75;;;;;;;20.71;51.77;95240.38;5119309;27;20038;-80
2023/08/14 05:37:08;;;;;;;4.13;3.15;;;;;;;20.66;52.42;95247.19;5113709;27;20023;-76
2023/08/14 05:39:34;;;;;;;4.72;2.97;;;;;;;20.57;50.23;95241.16;5128984;27;20038;-76
2023/08/14 05:41:59;;;;;;;4.45;2.90;;;;;;;20.78;48.82;95245.75;5110068;28;20402;-75
2023/08/14 05:44:25;;;;;;;5.57;2.70;;;;;;;20.62;49.83;95249.38;5131192;27;20035;-76
2023/08/14 05:46:50;;;;;;;5.82;2.78;;;;;;;21.04;50.53;95241.88;5111294;28;20482;-76
2023/08/14 05:49:16;;;;;;;3.53;2.60;;;;;;;21.27;49.48;95244.44;5113570;27;20038;-76
2023/08/14 05:51:41;;;;;;;3.97;2.33;;;;;;;21.21;48.67;95238.06;5130154;27;20507;-76
2023/08/14 05:54:07;;;;;;;3.63;2.53;;;;;;;21.00;48.08;95245.88;5130597;27;20058;-76
2023/08/14 05:56:33;;;;;;;3.08;2.30;;;;;;;20.93;47.66;95245.78;5096996;28;20096;-75
2023/08/14 05:58:59;;;;;;;3.10;2.60;;;;;;;21.30;47.49;95246.69;5131721;27;20031;-75
2023/08/14 06:01:24;;;;;;;3.83;2.40;;;;;;;21.48;46.51;95243.72;5131907;27;20023;-75
2023/08/14 06:03:50;;;;;;;3.67;2.60;;;;;;;21.65;46.03;95237.22;5130695;28;20019;-76
2023/08/14 06:06:15;;;;;;;3.72;2.60;;;;;;;21.75;45.45;95237.75;5130536;28;20516;-76
2023/08/14 06:08:40;;;;;;;3.53;2.45;;;;;;;21.98;44.46;95234.13;5132218;27;20030;-76
2023/08/14 06:11:06;;;;;;;4.55;2.70;;;;;;;21.56;44.74;95240.97;5130596;28;20035;-76
2023/08/14 06:13:31;;;;;;;3.45;2.58;;;;;;;21.93;45.53;95240.00;5113275;28;20495;-76
2023/08/14 06:15:57;;;;;;;3.65;3.00;;;;;;;22.28;44.14;95240.97;5131723;27;20080;-76
2023/08/14 06:18:22;;;;;;;4.63;2.90;;;;;;;22.40;44.05;95238.66;5113376;28;20026;-76
2023/08/14 06:20:50;;;;;;;3.08;2.58;;;;;;;22.82;43.38;95239.63;5130524;28;20039;-75
2023/08/14 06:23:15;;;;;;;3.78;2.58;;;;;;;22.99;42.03;95224.28;5113532;28;20023;-76
2023/08/14 06:25:41;;;;;;;4.05;2.40;;;;;;;23.16;41.95;95228.25;5130414;28;20039;-76
2023/08/14 06:28:06;;;;;;;3.70;2.55;;;;;;;23.37;41.95;95234.47;5130345;27;20019;-76
2023/08/14 06:30:32;;;;;;;4.65;2.70;;;;;;;23.47;42.27;95240.25;5131961;27;20480;-75
2023/08/14 06:32:57;;;;;;;4.38;2.72;;;;;;;23.36;42.05;95236.31;5113224;28;20477;-75
2023/08/14 06:35:22;;;;;;;3.00;2.30;;;;;;;23.68;42.05;95241.13;5130446;28;20547;-76
2023/08/14 06:37:48;;;;;;;4.13;2.63;;;;;;;23.84;41.99;95230.22;5133842;27;20473;-76
2023/08/14 06:40:13;;;;;;;3.90;2.83;;;;;;;23.76;41.58;95231.19;5134343;27;20035;-76
2023/08/14 06:42:39;;;;;;;4.25;2.47;;;;;;;23.98;40.51;95231.88;5135597;27;20019;-76
2023/08/14 06:45:05;;;;;;;4.22;2.47;;;;;;;23.86;40.27;95231.66;5117012;27;20042;-76
2023/08/14 06:47:30;;;;;;;3.15;2.42;;;;;;;24.05;40.24;95237.22;5135672;27;20020;-75
2023/08/14 06:49:55;;;;;;;4.28;2.65;;;;;;;24.25;39.64;95226.66;5134174;27;20035;-76
2023/08/14 06:52:21;;;;;;;2.78;2.10;;;;;;;24.13;39.41;95244.19;5133883;27;20046;-77
2023/08/14 06:54:46;;;;;;;3.20;2.33;;;;;;;24.09;39.43;95243.75;5133969;27;20050;-76
2023/08/14 06:57:12;;;;;;;3.42;2.53;;;;;;;24.06;40.47;95239.66;5133872;27;20031;-76
2023/08/14 06:59:37;;;;;;;2.95;2.30;;;;;;;23.96;40.05;95238.41;5135180;27;20058;-76
2023/08/14 07:02:02;;;;;;;4.22;2.38;;;;;;;23.97;39.14;95245.38;5133799;27;20038;-76
2023/08/14 07:04:28;;;;;;;2.95;2.33;;;;;;;24.13;39.73;95246.84;5133810;27;20485;-76
2023/08/14 07:06:53;;;;;;;3.65;2.40;;;;;;;23.90;40.39;95240.03;5133852;27;20103;-76
2023/08/14 07:09:19;;;;;;;2.95;2.50;;;;;;;24.10;40.11;95240.09;5133878;27;20299;-77
2023/08/14 07:11:44;;;;;;;2.83;2.25;;;;;;;24.83;37.08;95240.19;5133683;27;20038;-76
2023/08/14 07:14:09;;;;;;;4.07;2.20;;;;;;;24.78;38.02;95236.53;5116411;27;20066;-76
2023/08/14 07:16:36;;;;;;;3.90;2.60;;;;;;;24.71;38.79;95234.69;5133560;27;20019;-76
2023/08/14 07:19:01;;;;;;;3.60;2.25;;;;;;;24.46;39.04;95237.13;5133445;27;20059;-76
2023/08/14 07:21:27;;;;;;;3.35;2.47;;;;;;;24.38;38.92;95231.16;5099413;27;20027;-76
2023/08/14 07:23:52;;;;;;;4.85;2.53;;;;;;;24.96;38.28;95240.19;5135042;27;20087;-77
2023/08/14 07:26:18;;;;;;;4.45;2.50;;;;;;;24.34;37.70;95235.22;5134568;27;20039;-77
2023/08/14 07:28:43;;;;;;;3.67;2.33;;;;;;;25.05;36.72;95238.13;5135019;27;20050;-76
2023/08/14 07:31:09;;;;;;;6.07;2.42;;;;;;;25.46;36.40;95233.56;5133256;27;20035;-76
2023/08/14 07:33:34;;;;;;;4.22;2.50;;;;;;;25.00;36.88;95239.78;5133431;27;20500;-76
2023/08/14 07:36:00;;;;;;;3.55;2.67;;;;;;;25.18;36.92;95239.97;5116204;27;20062;-75
2023/08/14 07:38:25;;;;;;;7.05;2.80;;;;;;;24.84;36.95;95236.50;5116149;27;20023;-76
2023/08/14 07:40:51;;;;;;;4.18;2.55;;;;;;;24.51;36.89;95216.06;5133258;27;20489;-77
2023/08/14 07:43:17;;;;;;;5.57;2.70;;;;;;;24.42;37.75;95237.69;5133152;27;20485;-76
2023/08/14 07:45:43;;;;;;;7.68;2.58;;;;;;;24.80;36.30;95229.16;5133037;27;20035;-75
2023/08/14 07:48:09;;;;;;;4.10;2.35;;;;;;;24.95;36.10;95233.22;5132955;27;20031;-76
2023/08/14 07:50:34;;;;;;;5.97;2.70;;;;;;;24.91;36.80;95232.00;5133697;27;20104;-76
2023/08/14 07:53:00;;;;;;;4.78;2.50;;;;;;;24.64;36.92;95227.72;5115593;27;20049;-77
2023/08/14 07:55:25;;;;;;;3.58;2.45;;;;;;;24.74;36.45;95236.13;5132942;27;20027;-76
2023/08/14 07:57:50;;;;;;;6.70;2.80;;;;;;;24.91;36.88;95232.00;5115696;27;20037;-77
2023/08/14 08:00:16;;;;;;;4.07;2.90;;;;;;;24.97;38.16;95227.72;5132872;27;20493;-77
2023/08/14 08:02:42;;;;;;;6.15;3.10;;;;;;;24.73;37.47;95245.09;5134207;27;20131;-77
2023/08/14 08:05:08;;;;;;;3.47;2.38;;;;;;;24.67;36.66;95245.91;5132824;27;20027;-76
2023/08/14 08:07:33;;;;;;;3.25;2.70;;;;;;;24.88;36.77;95243.06;5115549;27;20035;-77
2023/08/14 08:09:59;;;;;;;4.30;2.80;;;;;;;24.69;37.36;95244.69;5115534;27;20031;-78
2023/08/14 08:12:24;;;;;;;4.20;2.70;;;;;;;24.61;37.64;95236.94;5132631;27;20095;-77
2023/08/14 08:14:49;;;;;;;5.10;2.90;;;;;;;24.60;37.27;95229.16;5115543;27;20031;-77
2023/08/14 08:17:16;;;;;;;3.70;2.90;;;;;;;24.65;37.04;95243.44;5115448;27;20065;-77
2023/08/14 08:19:42;;;;;;;4.35;3.08;;;;;;;24.67;37.02;95240.59;5133668;27;20031;-77
2023/08/14 08:22:07;;;;;;;3.45;3.00;;;;;;;24.98;37.37;95224.84;5098133;27;20496;-77
2023/08/14 08:24:33;;;;;;;3.38;2.60;;;;;;;24.96;36.60;95223.41;5115367;27;20412;-77
2023/08/14 08:26:58;;;;;;;3.78;2.70;;;;;;;25.41;36.35;95227.03;5132167;27;20030;-77
2023/08/14 08:29:24;;;;;;;3.65;2.60;;;;;;;25.55;35.76;95232.31;5133639;27;20023;-77
2023/08/14 08:31:49;;;;;;;2.78;2.47;;;;;;;25.79;34.06;95222.81;5132493;27;20029;-77
2023/08/14 08:34:14;;;;;;;3.55;2.60;;;;;;;26.02;34.23;95228.47;5115186;27;20023;-77
2023/08/14 08:36:40;;;;;;;3.90;2.90;;;;;;;25.48;34.99;95212.91;5132141;27;20016;-77
2023/08/14 08:39:05;;;;;;;3.40;2.42;;;;;;;25.62;34.49;95214.47;5114864;27;20481;-77
2023/08/14 08:41:32;;;;;;;5.38;2.88;;;;;;;25.30;35.27;95218.91;5114870;27;20030;-78
2023/08/14 08:44:12;;;;;;;4.57;2.65;;;;;;;25.38;35.62;95229.28;5131805;27;20142;-77
2023/08/14 08:46:41;;;;;;;5.03;3.35;;;;;;;25.88;34.51;95226.06;5115744;27;20114;-77
2023/08/14 08:49:07;;;;;;;4.88;2.50;;;;;;;25.56;35.73;95231.28;5114888;27;20031;-77
2023/08/14 08:51:36;;;;;;;4.93;2.70;;;;;;;25.76;33.16;95213.41;5097702;27;20026;-77
2023/08/14 08:54:01;;;;;;;5.18;2.83;;;;;;;25.44;35.17;95219.69;5114673;27;20062;-77
2023/08/14 08:56:27;;;;;;;4.32;2.55;;;;;;;25.49;35.11;95226.00;5114766;27;20023;-77
2023/08/14 08:58:52;;;;;;;3.42;2.83;;;;;;;25.76;33.88;95207.25;5114729;27;20039;-76
2023/08/14 09:01:19;;;;;;;3.08;2.63;;;;;;;25.95;33.57;95200.25;5113575;27;20088;-76
2023/08/14 09:03:45;;;;;;;3.88;2.78;;;;;;;26.01;33.48;95210.03;5114659;27;20031;-77
2023/08/14 09:06:10;;;;;;;3.15;2.70;;;;;;;25.72;34.29;95193.56;5114418;27;20054;-77
2023/08/14 09:08:36;;;;;;;3.10;2.80;;;;;;;25.57;35.16;95204.47;5114542;27;20061;-78
2023/08/14 09:11:01;;;;;;;5.53;2.60;;;;;;;25.54;34.41;95212.06;5114444;27;20489;-78
2023/08/14 09:13:27;;;;;;;3.33;2.40;;;;;;;25.52;34.79;95201.66;5131622;27;20378;-78
2023/08/14 09:15:52;;;;;;;6.35;2.50;;;;;;;26.06;33.59;95194.25;5131539;27;20027;-79
2023/08/14 09:18:18;;;;;;;4.15;2.65;;;;;;;26.19;33.35;95190.69;5114339;27;20489;-79
2023/08/14 09:20:43;;;;;;;4.95;2.65;;;;;;;25.91;34.41;95191.88;5114696;27;20386;-79
2023/08/14 09:23:12;;;;;;;3.25;2.53;;;;;;;26.35;32.50;95200.78;5097254;27;20038;-78
2023/08/14 09:25:40;;;;;;;3.63;2.40;;;;;;;26.03;33.33;95192.00;5114219;27;20027;-76
2023/08/14 09:28:07;;;;;;;3.40;2.40;;;;;;;25.85;33.18;95192.72;5114359;27;20023;-78
2023/08/14 09:30:32;;;;;;;4.95;2.67;;;;;;;25.85;33.05;95190.88;5131155;27;20473;-77
2023/08/14 09:32:57;;;;;;;5.30;2.72;;;;;;;26.29;31.73;95193.69;5114234;27;20031;-76
2023/08/14 09:35:23;;;;;;;4.22;2.65;;;;;;;26.22;32.96;95184.94;5131234;27;20031;-77
2023/08/14 09:37:48;;;;;;;2.92;2.50;;;;;;;26.10;33.25;95184.78;5131136;27;20046;-78
2023/08/14 09:40:16;;;;;;;4.88;2.90;;;;;;;26.38;32.34;95179.06;5114237;27;20416;-77
2023/08/14 09:42:46;;;;;;;3.20;2.60;;;;;;;26.26;33.06;95175.47;5131365;27;20023;-77
2023/08/14 09:45:12;;;;;;;3.28;2.70;;;;;;;26.30;32.67;95172.19;5114002;27;20031;-77
2023/08/14 09:47:39;;;;;;;3.55;2.70;;;;;;;26.65;32.62;95177.03;5131066;27;20030;-77
2023/08/14 09:50:06;;;;;;;4.43;2.88;;;;;;;26.41;32.57;95170.66;5113920;27;20027;-77
2023/08/14 09:52:31;;;;;;;3.25;2.63;;;;;;;25.97;33.56;95182.22;5131918;27;20139;-78
2023/08/14 09:54:57;;;;;;;3.65;2.42;;;;;;;26.48;32.18;95168.75;5132270;27;20027;-77
2023/08/14 09:57:25;;;;;;;4.43;2.90;;;;;;;26.30;32.74;95152.72;5130975;27;20023;-77
2023/08/14 09:59:51;;;;;;;3.78;2.90;;;;;;;25.98;34.80;95165.22;5113797;28;20432;-77
2023/08/14 10:02:17;;;;;;;4.10;2.83;;;;;;;26.26;33.55;95162.97;5113770;28;20117;-77
2023/08/14 10:04:45;;;;;;;4.82;2.65;;;;;;;26.22;33.83;95158.31;5130701;28;20096;-76
2023/08/14 10:07:11;;;;;;;3.70;2.58;;;;;;;26.21;33.57;95170.78;5113576;28;20023;-78
2023/08/14 10:09:38;;;;;;;4.97;2.60;;;;;;;26.34;33.21;95161.09;5096775;28;20031;-77
2023/08/14 10:12:07;;;;;;;2.95;2.30;;;;;;;26.53;33.52;95157.47;5132906;27;20051;-77
2023/08/14 10:14:32;;;;;;;3.30;2.50;;;;;;;26.50;34.01;95164.06;5135209;27;20092;-77
2023/08/14 10:16:57;;;;;;;5.32;2.83;;;;;;;26.22;33.74;95156.47;5100671;27;20023;-77
2023/08/14 10:19:23;;;;;;;4.53;2.47;;;;;;;25.96;33.27;95148.66;5117882;27;20032;-78
2023/08/14 10:21:48;;;;;;;4.72;2.88;;;;;;;25.97;34.01;95150.28;5117749;27;20080;-78
2023/08/14 10:24:14;;;;;;;3.50;2.70;;;;;;;26.12;34.01;95142.81;5134941;27;20036;-77
2023/08/14 10:26:39;;;;;;;4.43;2.92;;;;;;;26.28;33.61;95149.47;5117543;27;20079;-78
2023/08/14 10:29:05;;;;;;;5.82;2.75;;;;;;;26.13;33.99;95144.44;5134635;27;20494;-77
2023/08/14 10:31:30;;;;;;;4.68;2.80;;;;;;;25.95;34.68;95147.03;5117629;27;20032;-78
2023/08/14 10:33:56;;;;;;;3.20;2.80;;;;;;;25.85;34.88;95148.31;5136468;27;20027;-79
2023/08/14 10:36:22;;;;;;;4.07;2.75;;;;;;;25.97;34.46;95147.63;5117544;27;20050;-77
2023/08/14 10:38:49;;;;;;;8.25;3.05;;;;;;;25.88;35.04;95131.09;5134752;27;20019;-78
2023/08/14 10:41:16;;;;;;;6.00;2.67;;;;;;;25.87;35.33;95139.28;5117538;27;20039;-77
2023/08/14 10:43:42;;;;;;;4.10;2.88;;;;;;;25.79;34.98;95133.16;5117756;27;20023;-78
2023/08/14 10:46:13;;;;;;;5.03;2.85;;;;;;;25.68;35.39;95136.50;5117316;27;20042;-77
2023/08/14 10:48:41;;;;;;;3.45;2.90;;;;;;;25.78;36.18;95131.53;5117747;27;20519;-79
2023/08/14 10:51:09;;;;;;;6.95;2.80;;;;;;;25.96;36.15;95122.03;5117444;27;20031;-78
2023/08/14 10:53:41;;;;;;;3.50;2.70;;;;;;;26.19;34.71;95111.66;5135450;27;20458;-77
2023/08/14 10:56:07;;;;;;;5.43;3.20;;;;;;;26.19;34.46;95127.63;5117007;27;20024;-78
2023/08/14 10:58:35;;;;;;;4.43;2.88;;;;;;;26.70;34.18;95134.56;5099856;27;20250;-78
2023/08/14 11:01:10;;;;;;;3.35;2.60;;;;;;;26.90;34.01;95123.72;5135355;27;20033;-78
2023/08/14 11:04:03;;;;;;;3.47;2.58;;;;;;;26.63;34.21;95130.34;5134108;27;20498;-79
2023/08/14 11:06:29;;;;;;;6.93;2.80;;;;;;;26.47;34.08;95113.84;5131750;27;20527;-79
2023/08/14 11:08:59;;;;;;;4.05;2.58;;;;;;;26.39;33.81;95116.00;5134210;27;20031;-79
2023/08/14 11:11:25;;;;;;;3.63;2.70;;;;;;;26.63;33.81;95128.47;5134220;27;20053;-79
2023/08/14 11:13:51;;;;;;;4.38;2.60;;;;;;;26.77;33.43;95115.03;5116954;27;20481;-78
2023/08/14 11:16:17;;;;;;;5.13;2.72;;;;;;;26.43;33.79;95122.50;5116868;27;20034;-77
2023/08/14 11:18:42;;;;;;;5.03;3.38;;;;;;;26.85;32.96;95106.75;5116843;27;20027;-78
2023/08/14 11:21:08;;;;;;;4.78;2.90;;;;;;;26.66;33.22;95098.75;5116548;27;20039;-79
2023/08/14 11:23:33;;;;;;;3.17;2.50;;;;;;;26.65;33.59;95113.09;5115477;28;20039;-79
2023/08/14 11:25:59;;;;;;;3.50;2.85;;;;;;;26.57;33.59;95116.03;5116460;27;20039;-79
2023/08/14 11:28:24;;;;;;;3.83;2.80;;;;;;;26.54;33.52;95113.81;5133675;27;20034;-79